^^
Meteo Knjazevac Station Historical Data
Daily Summary for June 22, 2022 Units:  English    Metric   Both
Daily Weekly Monthly Yearly Custom
  High: Low: Average:
Temperature: 84.4 °F 63.3 °F 73.5 °F
Dew Point: 68.6 °F 61.3 °F 63.9 °F
Humidity: 99% 52% 74%
Wind Speed: 12mph 0mph 3.6mph
Wind Gust: 21mph - -
Wind- - WSW
Pressure: 29.98 in 29.93 in -
Precipitation: 0.00 in    
Historical Graphs
 
 
Tabular Data for June 22, 2022
Time Temperature Dew Point Pressure Wind Wind Speed Wind Gust Humidity Rainfall Rate (Hourly) solar Conditions
00:00 66.2 °F 64.1 °F 29.96 in Calm   3 mph 93% 0.00 in 0 W/m2
00:10 66 °F 63.9 °F 29.96 in Calm   2 mph 93% 0.00 in 0 W/m2
00:20 65.7 °F 63.6 °F 29.96 in West 1 mph 3 mph 93% 0.00 in 0 W/m2
00:30 65.3 °F 63.2 °F 29.96 in NW 1 mph 3 mph 93% 0.00 in 0 W/m2
00:40 65.1 °F 63.3 °F 29.96 in WNW 1 mph 3 mph 94% 0.00 in 0 W/m2
00:50 64.9 °F 63.2 °F 29.96 in West 1 mph 2 mph 94% 0.00 in 0 W/m2
01:00 64.7 °F 63 °F 29.97 in WSW 2 mph 2 mph 94% 0.00 in 0 W/m2
01:10 64.6 °F 63.1 °F 29.96 in WNW 1 mph 3 mph 95% 0.00 in 0 W/m2
01:20 64.6 °F 63.1 °F 29.96 in SW 2 mph 6 mph 95% 0.00 in 0 W/m2
01:30 64.6 °F 63.1 °F 29.96 in SSW 1 mph 5 mph 95% 0.00 in 0 W/m2
01:40 64.6 °F 63.4 °F 29.96 in Calm   3 mph 96% 0.00 in 0 W/m2
01:50 64.8 °F 63.6 °F 29.96 in NNW 1 mph 5 mph 96% 0.00 in 0 W/m2
02:00 64.6 °F 63.1 °F 29.96 in WNW 1 mph 5 mph 95% 0.00 in 0 W/m2
02:10 64.6 °F 63.4 °F 29.96 in North 1 mph 2 mph 96% 0.00 in 0 W/m2
02:20 64.8 °F 63.6 °F 29.96 in West 1 mph 2 mph 96% 0.00 in 0 W/m2
02:30 64.4 °F 62.9 °F 29.96 in WNW 1 mph 2 mph 95% 0.00 in 0 W/m2
02:40 64 °F 62.6 °F 29.96 in WSW 1 mph 4 mph 95% 0.00 in 0 W/m2
02:50 64 °F 62.9 °F 29.96 in WNW 1 mph 3 mph 96% 0.00 in 0 W/m2
03:00 63.9 °F 62.4 °F 29.96 in West 1 mph 3 mph 95% 0.00 in 0 W/m2
03:10 63.7 °F 62.5 °F 29.96 in WSW 2 mph 5 mph 96% 0.00 in 0 W/m2
03:20 63.5 °F 62.3 °F 29.96 in NNE 1 mph 2 mph 96% 0.00 in 0 W/m2
03:30 63.7 °F 62.5 °F 29.96 in ENE 1 mph 2 mph 96% 0.00 in 0 W/m2
03:40 63.6 °F 62.5 °F 29.96 in WSW 1 mph 2 mph 96% 0.00 in 0 W/m2
03:50 63.3 °F 62.2 °F 29.96 in West 1 mph 4 mph 96% 0.00 in 0 W/m2
04:00 63.5 °F 62.9 °F 29.95 in Calm   4 mph 98% 0.00 in 0 W/m2
04:10 63.3 °F 62.2 °F 29.95 in WNW 1 mph 3 mph 96% 0.00 in 0 W/m2
04:20 63.3 °F 62.7 °F 29.95 in Calm   2 mph 98% 0.00 in 0 W/m2
04:30 63.3 °F 62.7 °F 29.95 in Calm   4 mph 98% 0.00 in 0 W/m2
04:40 63.3 °F 62.7 °F 29.95 in North 1 mph 3 mph 98% 0.00 in 0 W/m2
04:50 63.5 °F 63.2 °F 29.95 in ENE 5 mph 7 mph 99% 0.00 in 3 W/m2
05:00 63.7 °F 63.4 °F 29.95 in ENE 3 mph 7 mph 99% 0.00 in 7 W/m2
05:10 64 °F 63.8 °F 29.95 in ENE 3 mph 8 mph 99% 0.00 in 14 W/m2
05:20 64.2 °F 63.6 °F 29.95 in SE 1 mph 5 mph 98% 0.00 in 23 W/m2
05:30 64.1 °F 63.5 °F 29.95 in NNW 1 mph 3 mph 98% 0.00 in 35 W/m2
05:40 64.4 °F 63.8 °F 29.95 in NE 2 mph 5 mph 98% 0.00 in 47 W/m2
05:50 64.8 °F 64.2 °F 29.96 in East 2 mph 4 mph 98% 0.00 in 58 W/m2
06:00 65.1 °F 64.5 °F 29.96 in Calm   5 mph 98% 0.00 in 69 W/m2
06:10 65.1 °F 64 °F 29.97 in Calm   2 mph 96% 0.00 in 83 W/m2
06:20 64.9 °F 63.8 °F 29.97 in Calm   3 mph 96% 0.00 in 96 W/m2
06:30 65.1 °F 64 °F 29.97 in WSW 1 mph 2 mph 96% 0.00 in 127 W/m2
06:40 65.3 °F 64.1 °F 29.97 in SW 1 mph 3 mph 96% 0.00 in 143 W/m2
06:50 65.7 °F 64.5 °F 29.97 in SSE 1 mph 4 mph 96% 0.00 in 175 W/m2
07:00 66.2 °F 65 °F 29.97 in SSW 1 mph 2 mph 96% 0.00 in 200 W/m2
07:10 66.7 °F 65.6 °F 29.97 in Calm   2 mph 96% 0.00 in 243 W/m2
07:20 67.3 °F 66.2 °F 29.97 in West 2 mph 7 mph 96% 0.00 in 267 W/m2
07:30 68.2 °F 66.7 °F 29.97 in ESE 3 mph 9 mph 95% 0.00 in 302 W/m2
07:40 68.7 °F 66.9 °F 29.97 in South 1 mph 6 mph 94% 0.00 in 335 W/m2
07:50 69.3 °F 67.2 °F 29.97 in SSW 2 mph 5 mph 93% 0.00 in 365 W/m2
08:00 70 °F 67.9 °F 29.98 in WNW 2 mph 5 mph 93% 0.00 in 391 W/m2
08:10 70.6 °F 67.8 °F 29.98 in NW 2 mph 5 mph 91% 0.00 in 428 W/m2
08:20 71.6 °F 68.2 °F 29.98 in WSW 3 mph 7 mph 89% 0.00 in 244 W/m2
08:30 72.6 °F 67.8 °F 29.97 in SW 3 mph 6 mph 85% 0.00 in 476 W/m2
08:40 73.6 °F 68.5 °F 29.97 in SW 3 mph 9 mph 84% 0.00 in 541 W/m2
08:50 74.7 °F 68.1 °F 29.97 in SSE 2 mph 7 mph 80% 0.00 in 587 W/m2
09:00 75.7 °F 68 °F 29.96 in SSE 2 mph 6 mph 77% 0.00 in 665 W/m2
09:10 76.5 °F 67.6 °F 29.96 in SSW 5 mph 7 mph 74% 0.00 in 582 W/m2
09:20 77.2 °F 68.6 °F 29.97 in WSW 3 mph 7 mph 75% 0.00 in 656 W/m2
09:30 77.2 °F 68.6 °F 29.97 in West 3 mph 5 mph 75% 0.00 in 656 W/m2
09:40 77.2 °F 68.6 °F 29.97 in West 3 mph 5 mph 75% 0.00 in 656 W/m2
09:50 77.2 °F 68.6 °F 29.97 in West 3 mph 5 mph 75% 0.00 in 656 W/m2
10:00 75.9 °F 64.2 °F 29.98 in West 6 mph 11 mph 67% 0.00 in 221 W/m2
10:10 75.5 °F 62.9 °F 29.97 in West 6 mph 12 mph 65% 0.00 in 193 W/m2
10:20 75 °F 62 °F 29.96 in WSW 6 mph 13 mph 64% 0.00 in 187 W/m2
10:30 74.8 °F 61.8 °F 29.97 in West 6 mph 12 mph 64% 0.00 in 170 W/m2
10:40 74.8 °F 63.1 °F 29.97 in West 3 mph 10 mph 67% 0.00 in 315 W/m2
10:50 75 °F 63.3 °F 29.98 in WNW 3 mph 8 mph 67% 0.00 in 332 W/m2
11:00 76.1 °F 63.9 °F 29.98 in WNW 5 mph 12 mph 66% 0.00 in 337 W/m2
11:10 76.3 °F 63.2 °F 29.98 in WNW 6 mph 13 mph 64% 0.00 in 589 W/m2
11:20 76.5 °F 63.4 °F 29.98 in WNW 7 mph 14 mph 64% 0.00 in 516 W/m2
11:30 76.3 °F 63.2 °F 29.98 in WNW 7 mph 11 mph 64% 0.00 in 151 W/m2
11:40 75.7 °F 63.1 °F 29.98 in West 5 mph 9 mph 65% 0.00 in 210 W/m2
11:50 75.5 °F 62.5 °F 29.98 in WNW 8 mph 13 mph 64% 0.00 in 415 W/m2
12:00 76.3 °F 62.3 °F 29.98 in West 6 mph 15 mph 62% 0.00 in 578 W/m2
12:10 76.6 °F 61.7 °F 29.98 in West 7 mph 16 mph 60% 0.00 in 608 W/m2
12:20 77.2 °F 61.7 °F 29.98 in West 10 mph 16 mph 59% 0.00 in 585 W/m2
12:30 77.7 °F 62.7 °F 29.97 in West 8 mph 15 mph 60% 0.00 in 787 W/m2
12:40 78.5 °F 63 °F 29.97 in West 5 mph 16 mph 59% 0.00 in 644 W/m2
12:50 79.5 °F 61.4 °F 29.96 in WSW 9 mph 15 mph 54% 0.00 in 921 W/m2
13:00 79.5 °F 61.4 °F 29.96 in WSW 12 mph 20 mph 54% 0.00 in 419 W/m2
13:10 78.8 °F 61.3 °F 29.97 in West 9 mph 17 mph 55% 0.00 in 797 W/m2
13:20 79.8 °F 63.2 °F 29.96 in West 3 mph 13 mph 57% 0.00 in 960 W/m2
13:30 80.9 °F 63.7 °F 29.96 in West 6 mph 13 mph 56% 0.00 in 952 W/m2
13:40 80.8 °F 63.6 °F 29.96 in West 7 mph 15 mph 56% 0.00 in 786 W/m2
13:50 80.5 °F 63.9 °F 29.96 in West 8 mph 15 mph 57% 0.00 in 554 W/m2
14:00 80.8 °F 64.1 °F 29.96 in WNW 5 mph 16 mph 57% 0.00 in 472 W/m2
14:10 80.6 °F 64 °F 29.96 in West 6 mph 14 mph 57% 0.00 in 378 W/m2
14:20 80.7 °F 64 °F 29.96 in West 7 mph 13 mph 57% 0.00 in 437 W/m2
14:30 81 °F 64.9 °F 29.96 in West 6 mph 14 mph 58% 0.00 in 873 W/m2
14:40 81.9 °F 64.6 °F 29.96 in West 6 mph 13 mph 56% 0.00 in 856 W/m2
14:50 82.4 °F 64.6 °F 29.96 in WNW 8 mph 14 mph 55% 0.00 in 681 W/m2
15:00 82.6 °F 64.8 °F 29.96 in West 7 mph 14 mph 55% 0.00 in 816 W/m2
15:10 82.9 °F 64.6 °F 29.96 in West 5 mph 14 mph 54% 0.00 in 795 W/m2
15:20 83.7 °F 65.8 °F 29.95 in West 7 mph 14 mph 55% 0.00 in 773 W/m2
15:30 83.8 °F 64.9 °F 29.95 in West 9 mph 14 mph 53% 0.00 in 749 W/m2
15:40 84 °F 65 °F 29.95 in West 9 mph 13 mph 53% 0.00 in 725 W/m2
15:50 84 °F 65 °F 29.95 in WSW 9 mph 14 mph 53% 0.00 in 700 W/m2
16:00 84 °F 65 °F 29.95 in West 7 mph 16 mph 53% 0.01 in 673 W/m2
16:10 84.4 °F 65.4 °F 29.94 in WSW 7 mph 21 mph 53% 0.00 in 647 W/m2
16:20 84 °F 65 °F 29.94 in West 8 mph 21 mph 53% 0.00 in 609 W/m2
16:30 84 °F 65 °F 29.93 in West 8 mph 20 mph 53% 0.00 in 583 W/m2
16:40 83.9 °F 64.4 °F 29.94 in West 12 mph 20 mph 52% 0.00 in 548 W/m2
16:50 83.8 °F 64.9 °F 29.94 in West 9 mph 20 mph 53% 0.00 in 521 W/m2
17:00 83.8 °F 64.9 °F 29.94 in West 8 mph 16 mph 53% 0.01 in 503 W/m2
17:10 83.8 °F 64.9 °F 29.94 in West 8 mph 16 mph 53% 0.00 in 467 W/m2
17:20 83.7 °F 64.7 °F 29.93 in West 8 mph 17 mph 53% 0.00 in 423 W/m2
17:30 83.8 °F 65.4 °F 29.94 in West 7 mph 13 mph 54% 0.00 in 369 W/m2
17:40 83.5 °F 65.1 °F 29.93 in West 7 mph 14 mph 54% 0.00 in 337 W/m2
17:50 83.4 °F 65 °F 29.94 in West 7 mph 13 mph 54% 0.00 in 291 W/m2
18:00 83.1 °F 64.8 °F 29.94 in West 6 mph 13 mph 54% 0.00 in 272 W/m2
18:10 82.7 °F 64.3 °F 29.94 in West 8 mph 12 mph 54% 0.00 in 162 W/m2
18:20 82.1 °F 64.4 °F 29.94 in West 5 mph 13 mph 55% 0.00 in 243 W/m2
18:30 82.2 °F 64.4 °F 29.94 in West 6 mph 9 mph 55% 0.00 in 218 W/m2
18:40 82 °F 64.3 °F 29.94 in WSW 6 mph 12 mph 55% 0.00 in 105 W/m2
18:50 81 °F 63.4 °F 29.94 in West 5 mph 12 mph 55% 0.00 in 48 W/m2
19:00 80.2 °F 63.6 °F 29.94 in West 6 mph 12 mph 57% 0.00 in 45 W/m2
19:10 79.5 °F 62.9 °F 29.95 in West 6 mph 10 mph 57% 0.00 in 48 W/m2
19:20 79.2 °F 63.1 °F 29.95 in WSW 3 mph 7 mph 58% 0.00 in 41 W/m2
19:30 78.6 °F 63.1 °F 29.95 in WSW 3 mph 7 mph 59% 0.00 in 22 W/m2
19:40 78.1 °F 63.1 °F 29.95 in SW 3 mph 7 mph 60% 0.00 in 13 W/m2
19:50 77.6 °F 62.6 °F 29.95 in WSW 2 mph 6 mph 60% 0.00 in 7 W/m2
20:00 77.4 °F 62.4 °F 29.95 in WSW 1 mph 5 mph 60% 0.00 in 4 W/m2
20:10 77 °F 63 °F 29.96 in SSW 1 mph 3 mph 62% 0.00 in 2 W/m2
20:20 76.8 °F 61.9 °F 29.96 in SW 2 mph 5 mph 60% 0.00 in 0 W/m2
20:30 76.5 °F 62.5 °F 29.96 in ESE 1 mph 3 mph 62% 0.00 in 0 W/m2
20:40 76.3 °F 61.4 °F 29.96 in NNW 2 mph 4 mph 60% 0.00 in 0 W/m2
20:50 75.9 °F 62 °F 29.96 in NNW 1 mph 2 mph 62% 0.00 in 0 W/m2
21:00 75.4 °F 62.8 °F 29.97 in SE 2 mph 3 mph 65% 0.00 in 0 W/m2
21:10 74.8 °F 63.1 °F 29.96 in SSE 1 mph 3 mph 67% 0.00 in 0 W/m2
21:20 74.3 °F 63.1 °F 29.97 in WSW 1 mph 3 mph 68% 0.00 in 0 W/m2
21:30 73.9 °F 62.7 °F 29.96 in Calm   3 mph 68% 0.00 in 0 W/m2
21:40 73.6 °F 62.8 °F 29.96 in ENE 1 mph 6 mph 69% 0.00 in 0 W/m2
21:50 73.6 °F 63.2 °F 29.97 in SW 2 mph 4 mph 70% 0.00 in 0 W/m2
22:00 73.1 °F 62.7 °F 29.97 in West 2 mph 3 mph 70% 0.00 in 0 W/m2
22:10 72.9 °F 62.1 °F 29.97 in West 1 mph 4 mph 69% 0.00 in 0 W/m2
22:20 72.6 °F 63.1 °F 29.97 in WSW 2 mph 4 mph 72% 0.00 in 0 W/m2
22:30 72.2 °F 62.7 °F 29.97 in WSW 1 mph 2 mph 72% 0.00 in 0 W/m2
22:40 71.9 °F 62.7 °F 29.97 in WSW 2 mph 3 mph 73% 0.00 in 0 W/m2
22:50 71.5 °F 62.8 °F 29.97 in SSW 1 mph 5 mph 74% 0.00 in 0 W/m2
23:00 71.2 °F 62.1 °F 29.97 in Calm   5 mph 73% 0.00 in 0 W/m2
23:10 71.1 °F 62.4 °F 29.97 in NNE 1 mph 2 mph 74% 0.00 in 0 W/m2
23:20 70.9 °F 62.2 °F 29.97 in South 1 mph 8 mph 74% 0.00 in 0 W/m2
23:30 70.9 °F 62.2 °F 29.97 in SE 2 mph 6 mph 74% 0.00 in 0 W/m2
23:40 70.9 °F 62.2 °F 29.97 in SSE 2 mph 5 mph 74% 0.00 in 0 W/m2
23:50 70.5 °F 62.2 °F 29.97 in Calm   4 mph 75% 0.00 in 0 W/m2
Knjazevac, Serbia
Compliments of Weather Underground - 2 mb